Terminal Aerodrome Forecast
Issued by NWS

Home | Current Version | Previous Version | Text Only | Print | Product List | Glossary On
Versions: 1 2 3 4 5 6 7 8 9 10 11 12 13 14 15 16 17 18 19 20 21 22 23 24
000
FTUS41 KGYX 050158 AAB
TAFRKD
TAF AMD
KRKD 050158Z 0502/0524 22012G20KT P6SM SCT100
     FM050700 25007KT P6SM OVC100 WS015/24040KT
     FM051200 30009KT P6SM SKC WS015/24040KT
     FM052200 27004KT P6SM SKC
      AMD LTD TO CLD VIS AND WIND=

USA.gov is the U.S. government's official web portal to all federal, state and local government web resources and services.